createdAt,value
2018-05-04T00:01:39.611Z,98368.19
2018-05-04T00:02:42.931Z,98375.02
2018-05-04T00:03:45.850Z,98371.87
2018-05-04T00:04:48.524Z,98371.27
2018-05-04T00:05:51.202Z,98369.77
2018-05-04T00:06:54.011Z,98368.96
2018-05-04T00:07:56.935Z,98368.09
2018-05-04T00:09:00.034Z,98365.59
2018-05-04T00:10:02.908Z,98375.36
2018-05-04T00:11:06.506Z,98371.14
2018-05-04T00:12:09.410Z,98367.16
2018-05-04T00:13:12.363Z,98369.92
2018-05-04T00:14:15.317Z,98375.30
2018-05-04T00:15:18.366Z,98375.81
2018-05-04T00:16:21.111Z,98376.75
2018-05-04T00:17:23.854Z,98375.28
2018-05-04T00:18:26.822Z,98375.36
2018-05-04T00:19:29.745Z,98379.64
2018-05-04T00:20:32.496Z,98379.25
2018-05-04T00:21:35.562Z,98379.13
2018-05-04T00:22:38.305Z,98378.08
2018-05-04T00:23:41.051Z,98379.34
2018-05-04T00:24:43.756Z,98376.25
2018-05-04T00:25:46.543Z,98382.56
2018-05-04T00:26:49.232Z,98380.54
2018-05-04T00:27:52.331Z,98380.06
2018-05-04T00:28:55.017Z,98382.95
2018-05-04T00:29:57.687Z,98387.49
2018-05-04T00:31:00.378Z,98389.41
2018-05-04T00:32:03.109Z,98391.42
2018-05-04T00:33:05.866Z,98388.75
2018-05-04T00:34:08.914Z,98389.81
2018-05-04T00:35:11.687Z,98398.31
2018-05-04T00:36:14.418Z,98397.80
2018-05-04T00:37:17.156Z,98396.11
2018-05-04T00:38:19.921Z,98402.41
2018-05-04T00:39:22.674Z,98398.59
2018-05-04T00:40:25.715Z,98400.23
2018-05-04T00:41:28.477Z,98403.89
2018-05-04T00:42:31.258Z,98401.39
2018-05-04T00:43:33.963Z,98406.45
2018-05-04T00:44:36.712Z,98407.37
2018-05-04T00:45:39.466Z,98409.30
2018-05-04T00:46:42.484Z,98412.02
2018-05-04T00:47:45.226Z,98405.08
2018-05-04T00:48:47.990Z,98408.95
2018-05-04T00:49:50.747Z,98413.54
2018-05-04T00:50:53.545Z,98411.59
2018-05-04T00:51:56.243Z,98412.82
2018-05-04T00:52:59.205Z,98412.18
2018-05-04T00:54:01.888Z,98415.59
2018-05-04T00:55:04.589Z,98421.03
2018-05-04T00:56:07.295Z,98419.53
2018-05-04T00:57:10.019Z,98416.55
2018-05-04T00:58:12.724Z,98412.31
2018-05-04T00:59:15.732Z,98417.77
2018-05-04T01:00:18.412Z,98417.23
2018-05-04T01:01:21.104Z,98413.47
2018-05-04T01:02:23.775Z,98420.19
2018-05-04T01:03:26.473Z,98415.34
2018-05-04T01:04:29.585Z,98420.48
2018-05-04T01:05:32.599Z,98421.69
2018-05-04T01:06:35.349Z,98412.73
2018-05-04T01:07:38.122Z,98415.20
2018-05-04T01:08:40.883Z,98422.95
2018-05-04T01:09:43.627Z,98419.81
2018-05-04T01:10:46.351Z,98420.50
2018-05-04T01:11:49.393Z,98424.80
2018-05-04T01:12:52.135Z,98421.17
2018-05-04T01:13:54.855Z,98421.66
2018-05-04T01:14:57.567Z,98425.30
2018-05-04T01:16:00.290Z,98419.98
2018-05-04T01:17:03.026Z,98425.97
2018-05-04T01:18:06.068Z,98428.23
2018-05-04T01:19:08.819Z,98429.08
2018-05-04T01:20:11.619Z,98434.22
2018-05-04T01:21:14.362Z,98431.08
2018-05-04T01:22:17.101Z,98431.78
2018-05-04T01:23:19.853Z,98432.68
2018-05-04T01:24:22.907Z,98435.48
2018-05-04T01:25:25.670Z,98433.03
2018-05-04T01:26:28.428Z,98432.56
2018-05-04T01:27:31.168Z,98436.05
2018-05-04T01:28:33.924Z,98423.77
2018-05-04T01:29:36.736Z,98426.55
2018-05-04T01:30:39.785Z,98425.66
2018-05-04T01:31:42.522Z,98426.41
2018-05-04T01:33:58.830Z,98428.09
2018-05-04T01:35:01.611Z,98429.19
2018-05-04T01:36:04.351Z,98436.34
2018-05-04T01:37:07.333Z,98435.90
2018-05-04T01:38:10.024Z,98437.25
2018-05-04T01:39:12.710Z,98443.06
2018-05-04T01:40:15.414Z,98440.64
2018-05-04T01:41:18.101Z,98441.61
2018-05-04T01:42:20.806Z,98436.53
2018-05-04T01:43:23.841Z,98436.14
2018-05-04T01:44:26.534Z,98440.34
2018-05-04T01:45:29.157Z,98441.31
2018-05-04T01:46:31.885Z,98442.23
2018-05-04T01:47:34.657Z,98440.58
2018-05-04T01:48:37.465Z,98441.53
2018-05-04T01:49:40.470Z,98442.39
2018-05-04T01:50:43.173Z,98440.81
2018-05-04T01:51:45.938Z,98446.01
2018-05-04T01:52:48.707Z,98444.78
2018-05-04T01:53:51.417Z,98444.34
2018-05-04T01:54:54.126Z,98445.17
2018-05-04T01:55:57.109Z,98445.02
2018-05-04T01:56:59.821Z,98440.15
2018-05-04T01:58:02.524Z,98444.85
2018-05-04T01:59:05.150Z,98443.46
2018-05-04T02:00:07.868Z,98443.84
2018-05-04T02:01:10.494Z,98438.98
2018-05-04T02:02:13.412Z,98437.05
2018-05-04T02:03:16.044Z,98437.05
2018-05-04T02:04:18.687Z,98426.50
2018-05-04T02:05:21.491Z,98432.95
2018-05-04T02:06:24.167Z,98430.33
2018-05-04T02:07:26.843Z,98436.20
2018-05-04T02:08:29.833Z,98421.81
2018-05-04T02:09:32.544Z,98420.03
2018-05-04T02:10:35.212Z,98425.13
2018-05-04T02:11:37.889Z,98417.23
2018-05-04T02:12:40.587Z,98422.62
2018-05-04T02:13:43.256Z,98422.45
2018-05-04T02:14:46.159Z,98417.92
2018-05-04T02:15:48.769Z,98425.25
2018-05-04T02:16:51.382Z,98427.53
2018-05-04T02:17:54.001Z,98428.06
2018-05-04T02:18:56.700Z,98422.76
2018-05-04T02:19:59.435Z,98423.70
2018-05-04T02:21:02.429Z,98427.93
2018-05-04T02:22:05.189Z,98425.20
2018-05-04T02:23:07.968Z,98425.53
2018-05-04T02:24:10.741Z,98425.09
2018-05-04T02:25:13.521Z,98426.61
2018-05-04T02:26:16.297Z,98427.55
2018-05-04T02:27:19.374Z,98426.91
2018-05-04T02:28:22.218Z,98435.23
2018-05-04T02:29:25.016Z,98426.83
2018-05-04T02:30:27.803Z,98433.80
2018-05-04T02:31:30.586Z,98432.97
2018-05-04T02:32:33.293Z,98435.48
2018-05-04T02:33:36.297Z,98427.44
2018-05-04T02:34:39.001Z,98428.78
2018-05-04T02:35:41.709Z,98433.02
2018-05-04T02:36:44.497Z,98436.34
2018-05-04T02:37:47.289Z,98431.89
2018-05-04T02:38:50.081Z,98432.73
2018-05-04T02:39:53.165Z,98431.75
2018-05-04T02:40:55.958Z,98432.97
2018-05-04T02:41:58.752Z,98431.28
2018-05-04T02:43:01.505Z,98428.20
2018-05-04T02:44:04.354Z,98435.16
2018-05-04T02:45:07.122Z,98431.66
2018-05-04T02:46:10.151Z,98425.78
2018-05-04T02:47:12.915Z,98426.89
2018-05-04T02:48:15.690Z,98425.08
2018-05-04T02:49:18.451Z,98427.53
2018-05-04T02:50:21.221Z,98418.84
2018-05-04T02:51:23.983Z,98416.02
2018-05-04T02:52:27.037Z,98416.98
2018-05-04T02:53:29.830Z,98424.36
2018-05-04T02:54:32.603Z,98422.06
2018-05-04T02:55:35.286Z,98418.56
2018-05-04T02:56:37.939Z,98422.09
2018-05-04T02:57:40.625Z,98416.83
2018-05-04T02:58:43.694Z,98421.45
2018-05-04T02:59:46.401Z,98417.34
2018-05-04T03:00:49.148Z,98415.00
2018-05-04T03:01:51.826Z,98412.08
2018-05-04T03:02:54.492Z,98409.95
2018-05-04T03:03:57.263Z,98405.88
2018-05-04T03:05:00.317Z,98405.53
2018-05-04T03:06:03.090Z,98407.47
2018-05-04T03:07:05.880Z,98402.61
2018-05-04T03:08:08.654Z,98400.67
2018-05-04T03:09:11.375Z,98398.73
2018-05-04T03:10:14.133Z,98399.31
2018-05-04T03:11:17.246Z,98395.20
2018-05-04T03:12:20.044Z,98401.95
2018-05-04T03:13:22.795Z,98400.77
2018-05-04T03:14:25.555Z,98401.50
2018-05-04T03:15:28.308Z,98400.44
2018-05-04T03:16:31.063Z,98402.61
2018-05-04T03:17:34.128Z,98404.95
2018-05-04T03:18:36.915Z,98408.25
2018-05-04T03:19:40.672Z,98407.11
2018-05-04T03:20:43.457Z,98407.11
2018-05-04T03:21:46.215Z,98406.14
2018-05-04T03:22:49.019Z,98402.27
2018-05-04T03:23:52.057Z,98406.73
2018-05-04T03:24:54.843Z,98409.25
2018-05-04T03:25:57.625Z,98405.92
2018-05-04T03:27:00.384Z,98412.55
2018-05-04T03:28:03.195Z,98395.08
2018-05-04T03:29:05.967Z,98403.16
2018-05-04T03:30:09.024Z,98401.59
2018-05-04T03:31:11.784Z,98398.63
2018-05-04T03:32:14.580Z,98395.88
2018-05-04T03:33:17.388Z,98398.40
2018-05-04T03:34:20.167Z,98391.59
2018-05-04T03:35:22.970Z,98400.66
2018-05-04T03:36:26.116Z,98400.65
2018-05-04T03:37:28.851Z,98396.58
2018-05-04T03:38:31.656Z,98400.66
2018-05-04T03:39:34.404Z,98406.81
2018-05-04T03:40:37.175Z,98400.66
2018-05-04T03:41:39.972Z,98398.00
2018-05-04T03:42:43.029Z,98402.91
2018-05-04T03:43:45.783Z,98400.15
2018-05-04T03:44:48.560Z,98410.69
2018-05-04T03:45:51.366Z,98409.50
2018-05-04T03:46:54.280Z,98409.84
2018-05-04T03:47:57.033Z,98408.30
2018-05-04T03:48:59.795Z,98407.13
2018-05-04T03:50:02.584Z,98412.39
2018-05-04T03:51:05.292Z,98412.09
2018-05-04T03:52:08.046Z,98410.55
2018-05-04T03:53:10.688Z,98417.34
2018-05-04T03:54:13.624Z,98418.69
2018-05-04T03:55:16.353Z,98422.03
2018-05-04T03:56:19.082Z,98428.05
2018-05-04T03:57:21.784Z,98418.53
2018-05-04T03:58:24.535Z,98423.39
2018-05-04T03:59:27.269Z,98431.35
2018-05-04T04:00:30.367Z,98434.46
2018-05-04T04:01:33.137Z,98434.66
2018-05-04T04:02:35.901Z,98439.86
2018-05-04T04:03:38.659Z,98440.64
2018-05-04T04:04:41.450Z,98440.67
2018-05-04T04:05:44.243Z,98445.89
2018-05-04T04:06:47.301Z,98442.39
2018-05-04T04:07:50.056Z,98442.77
2018-05-04T04:08:52.844Z,98437.11
2018-05-04T04:09:55.598Z,98442.73
2018-05-04T04:10:58.365Z,98442.73
2018-05-04T04:12:01.135Z,98438.02
2018-05-04T04:13:04.157Z,98447.94
2018-05-04T04:14:06.910Z,98445.69
2018-05-04T04:15:09.718Z,98440.83
2018-05-04T04:16:12.513Z,98442.94
2018-05-04T04:17:15.285Z,98442.58
2018-05-04T04:18:18.043Z,98441.45
2018-05-04T04:19:21.111Z,98438.53
2018-05-04T04:20:23.863Z,98434.08
2018-05-04T04:21:26.635Z,98436.20
2018-05-04T04:22:29.374Z,98435.44
2018-05-04T04:23:32.122Z,98430.38
2018-05-04T04:24:34.872Z,98432.72
2018-05-04T04:25:37.621Z,98429.02
2018-05-04T04:26:40.408Z,98433.48
2018-05-04T04:27:43.180Z,98435.05
2018-05-04T04:28:45.943Z,98439.67
2018-05-04T04:29:48.675Z,98442.00
2018-05-04T04:30:51.764Z,98440.64
2018-05-04T04:31:54.614Z,98446.66
2018-05-04T04:32:57.437Z,98448.22
2018-05-04T04:34:00.232Z,98445.45
2018-05-04T04:35:02.983Z,98447.40
2018-05-04T04:36:05.851Z,98451.28
2018-05-04T04:37:08.959Z,98443.55
2018-05-04T04:38:11.755Z,98451.52
2018-05-04T04:39:14.594Z,98446.11
2018-05-04T04:40:17.347Z,98450.38
2018-05-04T04:41:20.736Z,98445.96
2018-05-04T04:42:23.535Z,98455.09
2018-05-04T04:43:26.611Z,98450.05
2018-05-04T04:44:29.338Z,98455.28
2018-05-04T04:45:32.091Z,98453.31
2018-05-04T04:46:34.893Z,98456.97
2018-05-04T04:47:37.616Z,98461.22
2018-05-04T04:48:40.375Z,98457.02
2018-05-04T04:49:43.451Z,98464.38
2018-05-04T04:50:46.202Z,98462.23
2018-05-04T04:51:48.971Z,98463.03
2018-05-04T04:52:51.877Z,98460.52
2018-05-04T04:53:55.263Z,98461.66
2018-05-04T04:54:58.067Z,98463.20
2018-05-04T04:56:01.121Z,98457.22
2018-05-04T04:57:03.830Z,98457.03
2018-05-04T04:58:06.543Z,98455.88
2018-05-04T04:59:09.327Z,98458.00
2018-05-04T05:00:12.136Z,98461.67
2018-05-04T05:01:14.882Z,98460.91
2018-05-04T05:02:17.955Z,98455.67
2018-05-04T05:03:20.726Z,98456.45
2018-05-04T05:04:23.537Z,98458.97
2018-05-04T05:05:26.313Z,98461.29
2018-05-04T05:06:29.096Z,98466.12
2018-05-04T05:07:37.183Z,98469.80
2018-05-04T05:08:40.778Z,98471.94
2018-05-04T05:09:43.600Z,98473.69
2018-05-04T05:10:46.354Z,98480.88
2018-05-04T05:11:49.119Z,98479.48
2018-05-04T05:12:51.943Z,98484.17
2018-05-04T05:13:54.735Z,98481.08
2018-05-04T05:14:58.012Z,98479.72
2018-05-04T05:16:00.795Z,98481.69
2018-05-04T05:17:03.817Z,98477.57
2018-05-04T05:18:06.616Z,98480.48
2018-05-04T05:19:09.516Z,98478.36
2018-05-04T05:20:12.303Z,98478.56
2018-05-04T05:21:15.357Z,98475.05
2018-05-04T05:22:18.133Z,98484.15
2018-05-04T05:23:20.903Z,98476.90
2018-05-04T05:24:23.621Z,98487.95
2018-05-04T05:25:26.526Z,98483.55
2018-05-04T05:26:29.288Z,98486.33
2018-05-04T05:27:32.388Z,98483.42
2018-05-04T05:28:35.227Z,98481.47
2018-05-04T05:29:38.388Z,98484.98
2018-05-04T05:30:41.117Z,98488.25
2018-05-04T05:31:43.849Z,98485.55
2018-05-04T05:32:46.570Z,98481.45
2018-05-04T05:33:49.802Z,98477.77
2018-05-04T05:34:52.637Z,98484.95
2018-05-04T05:35:55.435Z,98482.78
2018-05-04T05:36:58.246Z,98488.42
2018-05-04T05:38:01.075Z,98486.45
2018-05-04T05:39:04.031Z,98484.53
2018-05-04T05:40:07.279Z,98484.92
2018-05-04T05:41:10.071Z,98483.73
2018-05-04T05:42:12.836Z,98484.46
2018-05-04T05:43:15.623Z,98474.13
2018-05-04T05:44:18.428Z,98483.82
2018-05-04T05:45:21.185Z,98476.78
2018-05-04T05:46:24.396Z,98473.88
2018-05-04T05:47:27.195Z,98476.14
2018-05-04T05:48:30.026Z,98471.67
2018-05-04T05:49:32.796Z,98479.77
2018-05-04T05:50:35.649Z,98476.37
2018-05-04T05:51:38.592Z,98482.71
2018-05-04T05:52:42.143Z,98486.15
2018-05-04T05:53:44.907Z,98481.55
2018-05-04T05:54:47.748Z,98482.45
2018-05-04T05:55:50.455Z,98479.09
2018-05-04T05:56:53.183Z,98486.05
2018-05-04T05:57:56.042Z,98484.85
2018-05-04T05:58:59.207Z,98488.40
2018-05-04T06:00:01.998Z,98490.47
2018-05-04T06:01:04.776Z,98486.49
2018-05-04T06:02:07.581Z,98481.40
2018-05-04T06:03:10.392Z,98485.01
2018-05-04T06:04:13.156Z,98493.14
2018-05-04T06:05:16.242Z,98495.75
2018-05-04T06:06:19.064Z,98488.59
2018-05-04T06:07:21.979Z,98489.05
2018-05-04T06:08:24.805Z,98488.61
2018-05-04T06:09:27.623Z,98487.45
2018-05-04T06:10:30.407Z,98490.11
2018-05-04T06:11:33.680Z,98493.57
2018-05-04T06:12:36.601Z,98497.66
2018-05-04T06:13:39.406Z,98497.70
2018-05-04T06:14:42.262Z,98504.25
2018-05-04T06:15:45.109Z,98503.68
2018-05-04T06:16:47.875Z,98503.04
2018-05-04T06:17:50.687Z,98498.97
2018-05-04T06:18:53.447Z,98501.72
2018-05-04T06:19:56.252Z,98499.09
2018-05-04T06:20:59.158Z,98503.30
2018-05-04T06:22:02.075Z,98503.01
2018-05-04T06:23:05.589Z,98503.45
2018-05-04T06:24:08.401Z,98497.42
2018-05-04T06:25:11.239Z,98499.25
2018-05-04T06:26:13.990Z,98496.92
2018-05-04T06:27:16.789Z,98492.34
2018-05-04T06:28:19.637Z,98497.23
2018-05-04T06:29:23.107Z,98503.86
2018-05-04T06:30:25.942Z,98504.55
2018-05-04T06:31:28.701Z,98498.45
2018-05-04T06:32:31.551Z,98504.42
2018-05-04T06:33:34.340Z,98499.30
2018-05-04T06:34:37.109Z,98500.88
2018-05-04T06:35:40.401Z,98503.98
2018-05-04T06:36:43.199Z,98497.34
2018-05-04T06:37:46.005Z,98505.04
2018-05-04T06:38:48.941Z,98507.80
2018-05-04T06:39:51.863Z,98510.46
2018-05-04T06:40:54.697Z,98502.88
2018-05-04T06:41:57.795Z,98506.09
2018-05-04T06:43:00.574Z,98504.81
2018-05-04T06:44:03.486Z,98502.07
2018-05-04T06:45:06.817Z,98504.06
2018-05-04T06:46:10.068Z,98507.98
2018-05-04T06:47:13.278Z,98508.89
2018-05-04T06:48:17.450Z,98513.31
2018-05-04T06:49:21.073Z,98515.27
2018-05-04T06:50:24.669Z,98508.19
2018-05-04T06:51:27.731Z,98516.59
2018-05-04T06:52:31.050Z,98516.14
2018-05-04T06:53:34.548Z,98512.08
2018-05-04T06:54:38.146Z,98516.60
2018-05-04T06:55:41.545Z,98519.99
2018-05-04T06:56:44.985Z,98515.28
2018-05-04T06:57:48.530Z,98518.56
2018-05-04T06:58:53.057Z,98515.43
2018-05-04T06:59:57.261Z,98512.63
2018-05-04T07:01:00.524Z,98506.94
2018-05-04T07:02:03.396Z,98514.00
2018-05-04T07:03:06.199Z,98504.80
2018-05-04T07:04:09.028Z,98509.59
2018-05-04T07:05:11.819Z,98513.80
2018-05-04T07:06:14.893Z,98505.80
2018-05-04T07:07:18.330Z,98507.61
2018-05-04T07:08:21.984Z,98512.08
2018-05-04T07:09:25.127Z,98504.97
2018-05-04T07:10:28.020Z,98506.61
2018-05-04T07:11:30.934Z,98508.45
2018-05-04T07:12:33.734Z,98512.66
2018-05-04T07:13:37.064Z,98509.69
2018-05-04T07:14:40.257Z,98513.41
2018-05-04T07:15:43.448Z,98503.73
2018-05-04T07:16:46.242Z,98495.73
2018-05-04T07:17:48.978Z,98509.20
2018-05-04T07:18:52.069Z,98505.24
2018-05-04T07:19:55.317Z,98506.37
2018-05-04T07:20:58.116Z,98508.70
2018-05-04T07:22:00.895Z,98511.83
2018-05-04T07:23:03.760Z,98514.49
2018-05-04T07:24:06.569Z,98513.75
2018-05-04T07:25:09.471Z,98517.03
2018-05-04T07:26:12.628Z,98516.80
2018-05-04T07:27:15.512Z,98518.02
2018-05-04T07:28:18.265Z,98520.08
2018-05-04T07:29:21.002Z,98520.77
2018-05-04T07:30:25.148Z,98523.31
2018-05-04T07:31:27.966Z,98518.06
2018-05-04T07:32:31.341Z,98513.82
2018-05-04T07:33:34.230Z,98518.55
2018-05-04T07:34:37.014Z,98518.47
2018-05-04T07:35:39.823Z,98517.03
2018-05-04T07:36:42.619Z,98519.43
2018-05-04T07:37:49.434Z,98519.10
2018-05-04T07:38:52.710Z,98520.63
2018-05-04T07:39:55.518Z,98518.09
2018-05-04T07:40:58.291Z,98521.97
2018-05-04T07:42:00.976Z,98515.75
2018-05-04T07:43:03.751Z,98520.69
2018-05-04T07:44:07.497Z,98513.92
2018-05-04T07:45:10.805Z,98519.25
2018-05-04T07:46:13.675Z,98518.48
2018-05-04T07:47:16.725Z,98512.53
2018-05-04T07:48:19.500Z,98508.07
2018-05-04T07:49:22.181Z,98505.76
2018-05-04T07:50:24.975Z,98511.98
2018-05-04T07:51:28.181Z,98515.67
2018-05-04T07:52:30.992Z,98504.84
2018-05-04T07:53:33.789Z,98504.61
2018-05-04T07:54:36.755Z,98508.33
2018-05-04T07:55:39.531Z,98509.39
2018-05-04T07:56:42.348Z,98510.52
2018-05-04T07:57:45.605Z,98510.84
2018-05-04T07:58:48.431Z,98511.12
2018-05-04T07:59:51.199Z,98516.10
2018-05-04T08:00:54.043Z,98511.52
2018-05-04T08:01:56.918Z,98510.78
2018-05-04T08:02:59.736Z,98510.42
2018-05-04T08:04:02.941Z,98511.73
2018-05-04T08:05:05.752Z,98506.78
2018-05-04T08:06:08.554Z,98505.67
2018-05-04T08:07:11.397Z,98512.05
2018-05-04T08:08:14.183Z,98511.48
2018-05-04T08:09:16.972Z,98511.25
2018-05-04T08:10:20.132Z,98513.86
2018-05-04T08:11:22.966Z,98513.70
2018-05-04T08:12:25.850Z,98516.06
2018-05-04T08:13:28.633Z,98511.98
2018-05-04T08:14:31.546Z,98519.92
2018-05-04T08:15:34.315Z,98513.02
2018-05-04T08:16:37.479Z,98510.30
2018-05-04T08:17:40.323Z,98518.78
2018-05-04T08:18:43.131Z,98517.14
2018-05-04T08:19:46.032Z,98518.55
2018-05-04T08:20:48.842Z,98516.47
2018-05-04T08:21:51.643Z,98512.91
2018-05-04T08:22:54.857Z,98517.22
2018-05-04T08:23:57.657Z,98525.02
2018-05-04T08:25:00.433Z,98524.73
2018-05-04T08:26:03.242Z,98522.56
2018-05-04T08:27:06.118Z,98523.76
2018-05-04T08:28:08.919Z,98526.79
2018-05-04T08:29:12.075Z,98525.56
2018-05-04T08:30:14.777Z,98518.30
2018-05-04T08:31:17.474Z,98528.05
2018-05-04T08:32:20.193Z,98526.64
2018-05-04T08:33:22.885Z,98525.77
2018-05-04T08:34:25.684Z,98525.38
2018-05-04T08:35:29.001Z,98517.39
2018-05-04T08:36:32.261Z,98519.86
2018-05-04T08:37:35.040Z,98514.03
2018-05-04T08:38:37.821Z,98517.73
2018-05-04T08:39:40.681Z,98518.61
2018-05-04T08:40:43.528Z,98518.99
2018-05-04T08:41:46.339Z,98519.67
2018-05-04T08:42:49.151Z,98525.20
2018-05-04T08:43:52.218Z,98522.29
2018-05-04T08:44:54.999Z,98528.69
2018-05-04T08:45:57.963Z,98517.69
2018-05-04T08:47:00.715Z,98524.30
2018-05-04T08:48:03.863Z,98530.64
2018-05-04T08:49:06.756Z,98526.04
2018-05-04T08:50:09.583Z,98514.72
2018-05-04T08:51:12.474Z,98518.32
2018-05-04T08:52:15.261Z,98516.05
2018-05-04T08:53:18.076Z,98515.83
2018-05-04T08:54:21.259Z,98506.52
2018-05-04T08:55:24.134Z,98510.92
2018-05-04T08:56:26.861Z,98514.70
2018-05-04T08:57:29.617Z,98507.93
2018-05-04T08:58:32.349Z,98501.64
2018-05-04T08:59:35.125Z,98502.77
2018-05-04T09:00:38.269Z,98497.98
2018-05-04T09:01:40.992Z,98503.86
2018-05-04T09:02:43.689Z,98493.19
2018-05-04T09:03:46.515Z,98496.80
2018-05-04T09:04:49.341Z,98493.06
2018-05-04T09:05:52.107Z,98495.62
2018-05-04T09:06:55.412Z,98494.30
2018-05-04T09:07:58.195Z,98495.88
2018-05-04T09:09:01.104Z,98495.48
2018-05-04T09:10:04.036Z,98495.97
2018-05-04T09:11:06.860Z,98495.98
2018-05-04T09:12:09.655Z,98498.09
2018-05-04T09:13:12.842Z,98495.23
2018-05-04T09:14:15.705Z,98494.04
2018-05-04T09:15:18.512Z,98492.16
2018-05-04T09:16:21.248Z,98496.75
2018-05-04T09:17:23.962Z,98498.84
2018-05-04T09:18:26.775Z,98489.61
2018-05-04T09:19:30.041Z,98489.17
2018-05-04T09:20:32.831Z,98491.64
2018-05-04T09:21:35.636Z,98489.80
2018-05-04T09:22:38.405Z,98497.64
2018-05-04T09:23:41.179Z,98495.56
2018-05-04T09:24:44.011Z,98497.89
2018-05-04T09:25:46.811Z,98484.80
2018-05-04T09:26:49.520Z,98488.65
2018-05-04T09:27:52.323Z,98484.20
2018-05-04T09:28:55.116Z,98487.62
2018-05-04T09:29:58.344Z,98478.78
2018-05-04T09:31:01.124Z,98480.89
2018-05-04T09:32:03.877Z,98481.02
2018-05-04T09:33:06.607Z,98479.26
2018-05-04T09:34:09.371Z,98480.22
2018-05-04T09:35:12.173Z,98476.06
2018-05-04T09:36:15.383Z,98471.03
2018-05-04T09:37:18.228Z,98477.73
2018-05-04T09:38:21.017Z,98476.12
2018-05-04T09:39:23.807Z,98473.36
2018-05-04T09:40:27.069Z,98474.45
2018-05-04T09:41:30.354Z,98466.13
2018-05-04T09:42:33.483Z,98472.16
2018-05-04T09:43:36.370Z,98476.78
2018-05-04T09:44:39.236Z,98483.83
2018-05-04T09:45:42.023Z,98479.84
2018-05-04T09:46:44.832Z,98481.33
2018-05-04T09:47:47.603Z,98486.64
2018-05-04T09:48:53.789Z,98489.28
2018-05-04T09:49:56.632Z,98484.55
2018-05-04T09:50:59.464Z,98484.48
2018-05-04T09:52:02.338Z,98483.03
2018-05-04T09:53:05.659Z,98487.11
2018-05-04T09:54:08.431Z,98479.98
2018-05-04T09:55:11.648Z,98483.14
2018-05-04T09:56:14.727Z,98480.64
2018-05-04T09:57:17.754Z,98485.98
2018-05-04T09:58:20.627Z,98478.28
2018-05-04T09:59:23.594Z,98478.38
2018-05-04T10:00:26.483Z,98477.02
2018-05-04T10:01:30.450Z,98478.50
2018-05-04T10:02:33.228Z,98483.48
2018-05-04T10:03:36.093Z,98480.05
2018-05-04T10:04:38.889Z,98481.19
2018-05-04T10:05:41.735Z,98478.98
2018-05-04T10:06:44.504Z,98477.84
2018-05-04T10:07:47.739Z,98477.55
2018-05-04T10:08:50.591Z,98475.63
2018-05-04T10:09:53.399Z,98474.38
2018-05-04T10:10:56.149Z,98472.12
2018-05-04T10:11:59.019Z,98477.52
2018-05-04T10:13:01.901Z,98474.35
2018-05-04T10:14:04.674Z,98463.63
2018-05-04T10:15:07.485Z,98481.19
2018-05-04T10:16:10.478Z,98480.45
2018-05-04T10:17:13.145Z,98478.15
2018-05-04T10:18:15.950Z,98479.36
2018-05-04T10:19:18.731Z,98479.13
2018-05-04T10:20:21.557Z,98485.32
2018-05-04T10:21:24.327Z,98482.27
2018-05-04T10:22:27.149Z,98481.08
2018-05-04T10:23:29.945Z,98476.96
2018-05-04T10:24:33.172Z,98475.04
2018-05-04T10:25:35.974Z,98471.79
2018-05-04T10:26:38.728Z,98479.95
2018-05-04T10:27:41.557Z,98475.98
2018-05-04T10:28:44.529Z,98478.41
2018-05-04T10:29:47.403Z,98479.41
2018-05-04T10:30:50.699Z,98478.34
2018-05-04T10:31:53.975Z,98477.55
2018-05-04T10:32:56.967Z,98478.41
2018-05-04T10:33:59.796Z,98473.50
2018-05-04T10:35:02.610Z,98469.05
2018-05-04T10:36:05.405Z,98470.05
2018-05-04T10:37:08.605Z,98468.98
2018-05-04T10:38:11.555Z,98464.88
2018-05-04T10:39:14.274Z,98468.34
2018-05-04T10:40:17.717Z,98467.34
2018-05-04T10:41:20.503Z,98471.38
2018-05-04T10:42:23.306Z,98460.66
2018-05-04T10:43:26.563Z,98457.98
2018-05-04T10:44:29.366Z,98461.37
2018-05-04T10:45:32.172Z,98460.49
2018-05-04T10:46:34.981Z,98472.66
2018-05-04T10:47:37.777Z,98472.69
2018-05-04T10:48:40.593Z,98468.14
2018-05-04T10:49:43.348Z,98470.97
2018-05-04T10:50:46.163Z,98464.87
2018-05-04T10:51:48.965Z,98461.14
2018-05-04T10:52:51.726Z,98461.02
2018-05-04T10:53:54.528Z,98466.89
2018-05-04T10:54:57.776Z,98466.31
2018-05-04T10:56:00.684Z,98462.61
2018-05-04T10:57:03.667Z,98459.91
2018-05-04T10:58:06.539Z,98466.45
2018-05-04T10:59:09.327Z,98462.50
2018-05-04T11:00:12.149Z,98464.40
2018-05-04T11:01:15.411Z,98457.11
2018-05-04T11:02:18.227Z,98456.11
2018-05-04T11:03:21.015Z,98458.83
2018-05-04T11:04:23.816Z,98454.60
2018-05-04T11:05:26.643Z,98453.77
2018-05-04T11:06:29.463Z,98454.35
2018-05-04T11:07:32.305Z,98451.67
2018-05-04T11:08:35.126Z,98454.80
2018-05-04T11:09:37.972Z,98455.70
2018-05-04T11:10:40.789Z,98453.84
2018-05-04T11:11:43.555Z,98455.16
2018-05-04T11:12:46.783Z,98444.15
2018-05-04T11:13:49.548Z,98447.38
2018-05-04T11:14:52.384Z,98446.45
2018-05-04T11:15:55.148Z,98456.52
2018-05-04T11:16:57.968Z,98452.31
2018-05-04T11:18:00.713Z,98454.77
2018-05-04T11:19:03.977Z,98455.81
2018-05-04T11:20:07.956Z,98456.64
2018-05-04T11:21:10.836Z,98454.88
2018-05-04T11:22:13.614Z,98445.62
2018-05-04T11:23:16.423Z,98450.20
2018-05-04T11:24:19.208Z,98447.43
2018-05-04T11:25:22.368Z,98444.41
2018-05-04T11:26:25.386Z,98450.45
2018-05-04T11:27:28.219Z,98451.16
2018-05-04T11:28:31.107Z,98445.64
2018-05-04T11:29:33.926Z,98449.13
2018-05-04T11:30:36.719Z,98444.75
2018-05-04T11:31:40.004Z,98452.39
2018-05-04T11:32:42.805Z,98454.65
2018-05-04T11:33:45.594Z,98451.00
2018-05-04T11:34:48.365Z,98454.75
2018-05-04T11:35:51.517Z,98453.34
2018-05-04T11:36:54.303Z,98452.90
2018-05-04T11:37:57.458Z,98451.73
2018-05-04T11:39:00.351Z,98449.16
2018-05-04T11:40:03.107Z,98447.84
2018-05-04T11:41:05.897Z,98448.97
2018-05-04T11:42:08.821Z,98444.90
2018-05-04T11:43:11.626Z,98445.68
2018-05-04T11:44:14.928Z,98451.23
2018-05-04T11:45:17.826Z,98448.11
2018-05-04T11:46:20.590Z,98447.30
2018-05-04T11:47:23.898Z,98445.17
2018-05-04T11:48:26.685Z,98450.55
2018-05-04T11:49:29.541Z,98448.31
2018-05-04T11:50:32.723Z,98448.59
2018-05-04T11:51:35.679Z,98449.41
2018-05-04T11:52:38.495Z,98449.05
2018-05-04T11:53:41.332Z,98452.13
2018-05-04T11:54:44.155Z,98448.04
2018-05-04T11:55:46.954Z,98452.03
2018-05-04T11:56:50.152Z,98443.75
2018-05-04T11:57:53.121Z,98445.27
2018-05-04T11:58:55.964Z,98446.48
2018-05-04T11:59:58.766Z,98445.64
2018-05-04T12:01:02.216Z,98450.07
2018-05-04T12:02:05.071Z,98445.05
2018-05-04T12:03:08.360Z,98445.15
2018-05-04T12:04:11.131Z,98445.26
2018-05-04T12:05:14.262Z,98443.78
2018-05-04T12:06:18.520Z,98444.00
2018-05-04T12:07:21.350Z,98443.21
2018-05-04T12:08:24.246Z,98451.50
2018-05-04T12:09:27.512Z,98453.41
2018-05-04T12:10:30.302Z,98447.48
2018-05-04T12:11:33.132Z,98451.89
2018-05-04T12:12:36.183Z,98450.09
2018-05-04T12:13:39.220Z,98453.97
2018-05-04T12:14:42.106Z,98450.23
2018-05-04T12:15:44.880Z,98441.41
2018-05-04T12:16:47.658Z,98445.44
2018-05-04T12:17:50.427Z,98444.17
2018-05-04T12:18:53.290Z,98442.23
2018-05-04T12:19:56.205Z,98445.70
2018-05-04T12:20:59.539Z,98442.95